createdAt,value
2018-06-17T00:00:45.139Z,16.10
2018-06-17T00:03:13.296Z,16.10
2018-06-17T00:05:41.460Z,16.10
2018-06-17T00:08:09.615Z,16.00
2018-06-17T00:10:37.796Z,16.00
2018-06-17T00:13:06.136Z,16.00
2018-06-17T00:15:34.299Z,15.90
2018-06-17T00:18:02.583Z,16.00
2018-06-17T00:20:30.733Z,15.90
2018-06-17T00:22:59.103Z,15.90
2018-06-17T00:25:27.285Z,15.90
2018-06-17T00:27:55.432Z,15.90
2018-06-17T00:30:23.614Z,15.90
2018-06-17T00:32:51.784Z,15.90
2018-06-17T00:35:19.965Z,15.90
2018-06-17T00:37:48.232Z,15.90
2018-06-17T00:40:16.432Z,15.90
2018-06-17T00:42:44.636Z,16.00
2018-06-17T00:45:12.808Z,16.00
2018-06-17T00:47:41.027Z,16.00
2018-06-17T00:50:09.181Z,16.00
2018-06-17T00:55:15.041Z,16.00
2018-06-17T00:57:46.900Z,16.00
2018-06-17T01:00:15.043Z,16.00
2018-06-17T01:02:43.763Z,16.00
2018-06-17T01:05:11.935Z,16.00
2018-06-17T01:07:40.364Z,16.00
2018-06-17T01:10:08.781Z,16.00
2018-06-17T01:12:37.101Z,16.00
2018-06-17T01:15:05.332Z,16.10
2018-06-17T01:17:33.536Z,16.10
2018-06-17T01:20:01.940Z,16.10
2018-06-17T01:22:30.153Z,16.10
2018-06-17T01:24:58.335Z,16.10
2018-06-17T01:29:54.484Z,16.00
2018-06-17T01:32:22.711Z,15.90
2018-06-17T01:34:51.167Z,15.90
2018-06-17T01:37:19.367Z,15.90
2018-06-17T01:39:47.541Z,15.90
2018-06-17T01:42:15.707Z,15.80
2018-06-17T01:44:43.899Z,15.80
2018-06-17T01:47:12.074Z,15.80
2018-06-17T01:49:40.231Z,15.80
2018-06-17T01:52:08.408Z,15.80
2018-06-17T01:57:05.203Z,15.90
2018-06-17T01:59:33.710Z,15.90
2018-06-17T02:02:01.888Z,15.90
2018-06-17T02:04:35.529Z,15.80
2018-06-17T02:09:42.661Z,15.90
2018-06-17T02:12:17.929Z,15.90
2018-06-17T02:14:51.625Z,15.90
2018-06-17T02:17:21.105Z,16.00
2018-06-17T02:22:17.223Z,16.00
2018-06-17T02:24:45.429Z,16.00
2018-06-17T02:27:13.601Z,16.00
2018-06-17T02:29:41.819Z,16.00
2018-06-17T02:32:10.000Z,16.00
2018-06-17T02:34:38.427Z,15.90
2018-06-17T02:37:07.248Z,15.80
2018-06-17T02:42:03.922Z,15.80
2018-06-17T02:44:32.137Z,15.70
2018-06-17T02:47:05.767Z,15.60
2018-06-17T02:49:37.200Z,15.60
2018-06-17T02:52:11.824Z,15.50
2018-06-17T02:54:41.056Z,15.50
2018-06-17T02:57:11.395Z,15.50
2018-06-17T02:59:40.097Z,15.50
2018-06-17T03:02:08.324Z,15.50
2018-06-17T03:04:36.501Z,15.50
2018-06-17T03:07:04.702Z,15.50
2018-06-17T03:09:32.973Z,15.50
2018-06-17T03:12:01.304Z,15.40
2018-06-17T03:14:30.144Z,15.50
2018-06-17T03:16:58.335Z,15.50
2018-06-17T03:19:26.531Z,15.50
2018-06-17T03:24:28.229Z,15.50
2018-06-17T03:27:01.856Z,15.50
2018-06-17T03:29:35.607Z,15.50
2018-06-17T03:32:09.128Z,15.40
2018-06-17T03:34:37.359Z,15.40
2018-06-17T03:37:05.545Z,15.40
2018-06-17T03:39:33.721Z,15.40
2018-06-17T03:42:01.907Z,15.40
2018-06-17T03:44:30.133Z,15.40
2018-06-17T03:46:58.340Z,15.40
2018-06-17T03:49:26.503Z,15.40
2018-06-17T03:51:54.691Z,15.40
2018-06-17T03:54:22.851Z,15.50
2018-06-17T03:56:51.005Z,15.50
2018-06-17T03:59:19.263Z,15.60
2018-06-17T04:01:47.432Z,15.60
2018-06-17T04:04:15.619Z,15.70
2018-06-17T04:06:44.007Z,15.80
2018-06-17T04:09:12.167Z,15.90
2018-06-17T04:11:40.345Z,15.90
2018-06-17T04:14:08.545Z,16.00
2018-06-17T04:16:36.733Z,16.00
2018-06-17T04:19:04.934Z,16.10
2018-06-17T04:21:33.194Z,16.10
2018-06-17T04:24:01.360Z,16.20
2018-06-17T04:26:29.546Z,16.20
2018-06-17T04:31:25.850Z,16.30
2018-06-17T04:33:54.115Z,16.30
2018-06-17T04:36:22.303Z,16.30
2018-06-17T04:38:50.454Z,16.40
2018-06-17T04:41:18.639Z,16.40
2018-06-17T04:43:46.797Z,16.40
2018-06-17T04:48:42.951Z,16.40
2018-06-17T04:51:11.107Z,16.50
2018-06-17T04:53:39.276Z,16.50
2018-06-17T04:56:07.816Z,16.60
2018-06-17T04:58:35.975Z,16.60
2018-06-17T05:01:04.186Z,16.60
2018-06-17T05:03:32.320Z,16.60
2018-06-17T05:08:28.410Z,16.70
2018-06-17T05:10:56.611Z,16.70
2018-06-17T05:13:24.768Z,16.70
2018-06-17T05:15:52.919Z,16.80
2018-06-17T05:18:21.093Z,16.90
2018-06-17T05:20:49.386Z,16.90
2018-06-17T05:23:17.574Z,17.00
2018-06-17T05:25:45.904Z,17.00
2018-06-17T05:28:14.157Z,17.10
2018-06-17T05:30:42.397Z,17.20
2018-06-17T05:33:10.568Z,17.20
2018-06-17T05:35:38.841Z,17.30
2018-06-17T05:38:07.503Z,17.30
2018-06-17T05:40:35.680Z,17.30
2018-06-17T05:43:03.839Z,17.30
2018-06-17T05:45:32.085Z,17.20
2018-06-17T05:48:00.348Z,17.20
2018-06-17T05:50:28.533Z,17.20
2018-06-17T05:52:56.720Z,17.20
2018-06-17T05:55:24.902Z,17.20
2018-06-17T05:57:53.089Z,17.20
2018-06-17T06:00:21.297Z,17.20
2018-06-17T06:02:49.485Z,17.10
2018-06-17T06:05:17.655Z,17.10
2018-06-17T06:07:45.836Z,17.10
2018-06-17T06:10:14.023Z,17.10
2018-06-17T06:12:42.162Z,17.00
2018-06-17T06:15:10.323Z,17.10
2018-06-17T06:17:38.532Z,17.10
2018-06-17T06:20:08.087Z,17.20
2018-06-17T06:22:36.227Z,17.40
2018-06-17T06:25:04.404Z,17.50
2018-06-17T06:27:32.633Z,17.60
2018-06-17T06:30:00.913Z,17.70
2018-06-17T06:32:29.080Z,17.90
2018-06-17T06:34:57.407Z,18.10
2018-06-17T06:37:25.925Z,18.20
2018-06-17T06:39:54.264Z,18.40
2018-06-17T06:42:22.448Z,18.50
2018-06-17T06:44:50.630Z,18.60
2018-06-17T06:47:18.795Z,18.70
2018-06-17T06:49:46.946Z,18.80
2018-06-17T06:52:15.125Z,18.90
2018-06-17T06:54:43.380Z,19.00
2018-06-17T06:57:11.589Z,19.10
2018-06-17T06:59:39.863Z,19.30
2018-06-17T07:02:19.707Z,19.60
2018-06-17T07:06:00.855Z,19.90
2018-06-17T07:08:40.490Z,20.40
2018-06-17T07:11:08.690Z,21.50
2018-06-17T07:13:37.253Z,22.40
2018-06-17T07:18:53.707Z,22.90
2018-06-17T07:21:21.895Z,22.70
2018-06-17T07:23:50.204Z,22.80
2018-06-17T07:26:35.132Z,23.10
2018-06-17T07:29:14.644Z,23.50
2018-06-17T07:31:42.832Z,23.90
2018-06-17T07:34:11.854Z,24.20
2018-06-17T07:36:40.328Z,24.40
2018-06-17T07:39:18.708Z,24.70
2018-06-17T07:41:47.728Z,25.10
2018-06-17T07:44:16.018Z,25.30
2018-06-17T07:46:44.285Z,25.40
2018-06-17T07:49:35.116Z,25.80
2018-06-17T07:52:15.726Z,26.20
2018-06-17T07:54:45.496Z,26.70
2018-06-17T07:57:14.863Z,27.20
2018-06-17T07:59:43.083Z,27.50
2018-06-17T08:02:11.825Z,27.60
2018-06-17T08:04:40.066Z,27.20
2018-06-17T08:07:08.292Z,27.00
2018-06-17T08:09:36.559Z,26.90
2018-06-17T08:12:05.133Z,26.90
2018-06-17T08:14:33.295Z,27.00
2018-06-17T08:17:01.500Z,27.20
2018-06-17T08:19:30.464Z,27.50
2018-06-17T08:21:59.400Z,27.50
2018-06-17T08:24:28.051Z,27.90
2018-06-17T08:29:24.308Z,28.20
2018-06-17T08:31:52.544Z,27.60
2018-06-17T08:34:20.749Z,27.00
2018-06-17T08:39:20.070Z,26.40
2018-06-17T08:41:48.258Z,26.70
2018-06-17T08:46:45.661Z,27.00
2018-06-17T08:51:42.408Z,27.10
2018-06-17T08:54:10.625Z,26.90
2018-06-17T08:56:40.146Z,26.60
2018-06-17T08:59:08.311Z,26.00
2018-06-17T09:01:38.551Z,25.60
2018-06-17T09:04:07.268Z,25.50
2018-06-17T09:06:35.473Z,25.90
2018-06-17T09:09:05.960Z,26.60
2018-06-17T09:11:34.161Z,27.60
2018-06-17T09:14:02.361Z,27.90
2018-06-17T09:16:30.514Z,27.80
2018-06-17T09:18:58.712Z,27.40
2018-06-17T09:21:26.879Z,27.60
2018-06-17T09:26:22.971Z,27.20
2018-06-17T09:28:51.148Z,26.60
2018-06-17T09:31:19.382Z,26.70
2018-06-17T09:33:47.586Z,27.00
2018-06-17T09:36:15.806Z,27.80
2018-06-17T09:38:44.115Z,28.40
2018-06-17T09:41:12.312Z,28.20
2018-06-17T09:43:40.559Z,28.00
2018-06-17T09:46:19.348Z,27.70
2018-06-17T09:48:48.828Z,27.20
2018-06-17T09:51:17.058Z,26.80
2018-06-17T09:53:45.402Z,26.50
2018-06-17T09:56:13.603Z,26.60
2018-06-17T09:58:41.797Z,27.00
2018-06-17T10:01:11.133Z,27.70
2018-06-17T10:03:44.908Z,28.40
2018-06-17T10:06:13.216Z,28.70
2018-06-17T10:08:41.424Z,29.10
2018-06-17T10:11:09.616Z,29.10
2018-06-17T10:13:40.097Z,28.80
2018-06-17T10:16:08.836Z,27.80
2018-06-17T10:18:37.186Z,27.20
2018-06-17T10:21:05.590Z,26.90
2018-06-17T10:23:34.344Z,26.70
2018-06-17T10:26:02.552Z,26.40
2018-06-17T10:28:31.496Z,26.30
2018-06-17T10:31:01.010Z,26.10
2018-06-17T10:33:29.356Z,26.10
2018-06-17T10:35:57.583Z,26.60
2018-06-17T10:38:25.784Z,27.20
2018-06-17T10:40:54.009Z,28.00
2018-06-17T10:43:23.746Z,28.50
2018-06-17T10:45:51.932Z,29.30
2018-06-17T10:48:20.281Z,29.30
2018-06-17T10:50:48.448Z,29.30
2018-06-17T10:53:16.649Z,29.00
2018-06-17T10:58:12.840Z,28.70
2018-06-17T11:00:41.040Z,29.00
2018-06-17T11:03:09.629Z,29.00
2018-06-17T11:05:37.830Z,29.20
2018-06-17T11:08:06.123Z,29.00
2018-06-17T11:10:34.943Z,29.10
2018-06-17T11:13:03.136Z,29.20
2018-06-17T11:15:31.963Z,29.10
2018-06-17T11:18:00.275Z,29.00
2018-06-17T11:20:28.439Z,28.90
2018-06-17T11:22:56.656Z,28.90
2018-06-17T11:25:25.444Z,28.50
2018-06-17T11:27:54.154Z,28.20
2018-06-17T11:30:22.330Z,28.30
2018-06-17T11:32:50.815Z,28.50
2018-06-17T11:35:19.010Z,28.80
2018-06-17T11:37:47.736Z,28.90
2018-06-17T11:40:16.227Z,29.10
2018-06-17T11:45:17.980Z,29.00
2018-06-17T11:47:47.749Z,28.90
2018-06-17T11:50:15.917Z,28.30
2018-06-17T11:52:44.453Z,27.90
2018-06-17T11:55:12.637Z,28.20
2018-06-17T11:57:40.813Z,28.40
2018-06-17T12:00:08.987Z,28.50
2018-06-17T12:02:37.195Z,28.40
2018-06-17T12:05:05.389Z,28.50
2018-06-17T12:07:33.686Z,28.50
2018-06-17T12:10:01.861Z,28.60
2018-06-17T12:12:30.024Z,28.60
2018-06-17T12:15:01.575Z,28.50
2018-06-17T12:17:29.873Z,28.40
2018-06-17T12:19:58.285Z,28.60
2018-06-17T12:22:30.634Z,28.70
2018-06-17T12:24:59.107Z,29.00
2018-06-17T12:27:27.398Z,29.50
2018-06-17T12:29:55.692Z,29.90
2018-06-17T12:32:24.221Z,30.50
2018-06-17T12:34:52.404Z,30.90
2018-06-17T12:39:49.199Z,30.50
2018-06-17T12:42:17.384Z,30.20
2018-06-17T12:44:45.575Z,29.90
2018-06-17T12:47:13.830Z,29.80
2018-06-17T12:49:42.009Z,30.10
2018-06-17T12:52:10.303Z,30.40
2018-06-17T12:54:38.562Z,30.40
2018-06-17T12:57:06.836Z,30.70
2018-06-17T12:59:35.142Z,31.70
2018-06-17T13:02:03.438Z,32.20
2018-06-17T13:04:32.248Z,31.90
2018-06-17T13:07:00.403Z,31.30
2018-06-17T13:09:28.667Z,30.80
2018-06-17T13:11:57.060Z,30.40
2018-06-17T13:14:25.314Z,30.30
2018-06-17T13:16:53.525Z,30.00
2018-06-17T13:19:22.206Z,30.30
2018-06-17T13:21:50.455Z,30.70
2018-06-17T13:24:18.769Z,30.90
2018-06-17T13:26:47.036Z,31.20
2018-06-17T13:29:15.457Z,31.80
2018-06-17T13:31:43.708Z,32.00
2018-06-17T13:34:11.980Z,32.20
2018-06-17T13:36:40.413Z,32.30
2018-06-17T13:39:09.104Z,31.90
2018-06-17T13:41:37.387Z,31.30
2018-06-17T13:44:05.585Z,30.20
2018-06-17T13:46:33.844Z,29.40
2018-06-17T13:49:01.996Z,28.70
2018-06-17T13:51:30.396Z,28.10
2018-06-17T13:53:58.895Z,27.70
2018-06-17T13:56:27.092Z,27.60
2018-06-17T13:58:55.261Z,27.80
2018-06-17T14:01:23.450Z,28.20
2018-06-17T14:03:51.611Z,28.90
2018-06-17T14:06:20.225Z,29.20
2018-06-17T14:08:48.379Z,29.70
2018-06-17T14:11:16.642Z,30.00
2018-06-17T14:13:44.818Z,30.50
2018-06-17T14:16:12.987Z,31.10
2018-06-17T14:18:41.189Z,31.50
2018-06-17T14:21:09.326Z,31.40
2018-06-17T14:23:37.547Z,31.80
2018-06-17T14:26:05.769Z,31.50
2018-06-17T14:28:33.922Z,31.40
2018-06-17T14:31:02.195Z,30.90
2018-06-17T14:33:30.621Z,30.00
2018-06-17T14:38:26.923Z,28.20
2018-06-17T14:41:00.579Z,27.70
2018-06-17T14:43:34.316Z,27.00
2018-06-17T14:46:08.992Z,26.60
2018-06-17T14:48:42.647Z,26.30
2018-06-17T14:51:16.290Z,26.00
2018-06-17T14:53:44.561Z,25.70
2018-06-17T14:56:12.739Z,25.50
2018-06-17T14:58:40.893Z,25.30
2018-06-17T15:01:09.040Z,25.20
2018-06-17T15:03:37.284Z,25.10
2018-06-17T15:06:06.179Z,25.20
2018-06-17T15:08:34.421Z,25.10
2018-06-17T15:11:02.553Z,25.30
2018-06-17T15:13:30.799Z,25.40
2018-06-17T15:15:59.369Z,25.30
2018-06-17T15:18:27.503Z,25.30
2018-06-17T15:20:55.765Z,25.40
2018-06-17T15:23:23.944Z,25.70
2018-06-17T15:25:52.131Z,25.70
2018-06-17T15:28:20.292Z,25.70
2018-06-17T15:30:48.508Z,25.60
2018-06-17T15:35:55.623Z,25.40
2018-06-17T15:38:29.163Z,25.30
2018-06-17T15:41:03.256Z,25.20
2018-06-17T15:43:31.427Z,25.10
2018-06-17T15:45:59.600Z,24.90
2018-06-17T15:48:27.806Z,24.70
2018-06-17T15:50:56.123Z,24.50
2018-06-17T15:53:24.148Z,24.40
2018-06-17T15:55:52.307Z,24.20
2018-06-17T16:00:48.392Z,23.80
2018-06-17T16:03:16.598Z,23.70
2018-06-17T16:05:44.801Z,23.70
2018-06-17T16:08:12.984Z,23.70
2018-06-17T16:10:41.423Z,23.90
2018-06-17T16:13:14.956Z,23.90
2018-06-17T16:15:48.846Z,23.90
2018-06-17T16:18:22.375Z,23.90
2018-06-17T16:20:56.004Z,23.80
2018-06-17T16:23:24.291Z,23.80
2018-06-17T16:25:52.478Z,23.80
2018-06-17T16:28:20.671Z,23.80
2018-06-17T16:30:49.016Z,23.90
2018-06-17T16:35:46.016Z,24.00
2018-06-17T16:38:14.181Z,24.10
2018-06-17T16:40:42.492Z,24.10
2018-06-17T16:43:10.690Z,24.20
2018-06-17T16:45:38.932Z,24.20
2018-06-17T16:48:07.108Z,24.20
2018-06-17T16:50:35.280Z,24.30
2018-06-17T16:53:08.843Z,24.10
2018-06-17T16:55:42.494Z,24.00
2018-06-17T16:58:16.067Z,23.90
2018-06-17T17:00:44.248Z,23.80
2018-06-17T17:03:12.552Z,23.80
2018-06-17T17:05:41.024Z,23.70
2018-06-17T17:08:09.191Z,23.60
2018-06-17T17:10:37.381Z,23.60
2018-06-17T17:13:05.651Z,23.50
2018-06-17T17:15:33.836Z,23.50
2018-06-17T17:18:02.017Z,23.20
2018-06-17T17:20:30.311Z,23.00
2018-06-17T17:22:58.511Z,22.80
2018-06-17T17:25:26.692Z,22.60
2018-06-17T17:27:54.912Z,22.40
2018-06-17T17:30:23.104Z,22.20
2018-06-17T17:33:58.209Z,22.00
2018-06-17T17:36:31.778Z,21.80
2018-06-17T17:39:05.177Z,21.60
2018-06-17T17:41:33.340Z,21.50
2018-06-17T17:44:01.541Z,21.40
2018-06-17T17:46:35.324Z,21.30
2018-06-17T17:49:03.523Z,21.30
2018-06-17T17:51:31.676Z,21.30
2018-06-17T17:53:59.889Z,21.20
2018-06-17T17:56:28.040Z,21.20
2018-06-17T17:58:56.241Z,21.20
2018-06-17T18:01:24.454Z,21.20
2018-06-17T18:03:52.630Z,21.20
2018-06-17T18:06:20.825Z,21.20
2018-06-17T18:08:49.144Z,21.30
2018-06-17T18:11:17.405Z,21.30
2018-06-17T18:13:45.553Z,21.30
2018-06-17T18:16:13.735Z,21.30
2018-06-17T18:18:41.984Z,21.20
2018-06-17T18:21:10.187Z,21.20
2018-06-17T18:23:38.475Z,21.20
2018-06-17T18:26:11.926Z,21.10
2018-06-17T18:28:45.726Z,21.10
2018-06-17T18:31:13.905Z,21.00
2018-06-17T18:33:47.553Z,21.00
2018-06-17T18:36:16.594Z,20.90
2018-06-17T18:38:46.074Z,20.90
2018-06-17T18:43:43.317Z,20.90
2018-06-17T18:46:12.576Z,20.90
2018-06-17T18:48:40.892Z,20.80
2018-06-17T18:51:10.026Z,20.70
2018-06-17T18:53:38.205Z,20.70
2018-06-17T18:58:34.476Z,20.50
2018-06-17T19:01:02.787Z,20.50
2018-06-17T19:03:31.258Z,20.30
2018-06-17T19:05:59.501Z,20.20
2018-06-17T19:08:33.215Z,20.10
2018-06-17T19:11:06.972Z,20.10
2018-06-17T19:13:40.613Z,20.00
2018-06-17T19:16:15.871Z,20.00
2018-06-17T19:18:44.179Z,19.90
2018-06-17T19:21:12.413Z,19.90
2018-06-17T19:23:40.694Z,19.80
2018-06-17T19:26:08.966Z,19.70
2018-06-17T19:28:37.155Z,19.70
2018-06-17T19:31:05.460Z,19.60
2018-06-17T19:33:33.652Z,19.60
2018-06-17T19:36:01.995Z,19.50
2018-06-17T19:38:30.250Z,19.50
2018-06-17T19:40:58.739Z,19.40
2018-06-17T19:43:26.924Z,19.40
2018-06-17T19:45:55.145Z,19.40
2018-06-17T19:48:23.551Z,19.30
2018-06-17T19:50:57.276Z,19.30
2018-06-17T19:53:30.896Z,19.30
2018-06-17T19:56:04.508Z,19.20
2018-06-17T19:58:38.127Z,19.20
2018-06-17T20:01:06.557Z,19.20
2018-06-17T20:03:34.837Z,19.10
2018-06-17T20:06:03.869Z,19.10
2018-06-17T20:08:32.052Z,19.00
2018-06-17T20:11:00.273Z,19.00
2018-06-17T20:13:28.571Z,19.00
2018-06-17T20:15:56.769Z,18.90
2018-06-17T20:18:25.154Z,18.90
2018-06-17T20:20:53.363Z,18.80
2018-06-17T20:23:21.569Z,18.70
2018-06-17T20:25:49.849Z,18.60
2018-06-17T20:28:18.021Z,18.50
2018-06-17T20:30:46.236Z,18.50
2018-06-17T20:33:19.732Z,18.50
2018-06-17T20:35:53.234Z,18.40
2018-06-17T20:38:26.652Z,18.50
2018-06-17T20:41:00.471Z,18.50
2018-06-17T20:43:34.025Z,18.50
2018-06-17T20:46:02.216Z,18.40
2018-06-17T20:48:30.378Z,18.50
2018-06-17T20:50:58.568Z,18.40
2018-06-17T20:53:26.736Z,18.40
2018-06-17T20:55:54.940Z,18.40
2018-06-17T20:58:23.150Z,18.30
2018-06-17T21:00:51.329Z,18.30
2018-06-17T21:03:19.567Z,18.20
2018-06-17T21:05:47.727Z,18.20
2018-06-17T21:08:15.896Z,18.20
2018-06-17T21:10:44.064Z,18.20
2018-06-17T21:13:12.260Z,18.30
2018-06-17T21:15:40.433Z,18.20
2018-06-17T21:18:08.656Z,18.20
2018-06-17T21:20:42.260Z,18.20
2018-06-17T21:23:15.901Z,18.20
2018-06-17T21:25:49.593Z,18.20
2018-06-17T21:28:17.800Z,18.10
2018-06-17T21:30:45.960Z,18.00
2018-06-17T21:33:14.234Z,17.90
2018-06-17T21:35:42.416Z,17.80
2018-06-17T21:38:10.625Z,17.70
2018-06-17T21:40:38.798Z,17.60
2018-06-17T21:43:06.991Z,17.50
2018-06-17T21:45:35.317Z,17.50
2018-06-17T21:48:04.099Z,17.40
2018-06-17T21:50:32.283Z,17.40
2018-06-17T21:53:00.502Z,17.50
2018-06-17T21:55:28.661Z,17.50
2018-06-17T21:57:56.839Z,17.50
2018-06-17T22:00:25.076Z,17.50
2018-06-17T22:02:53.237Z,17.50
2018-06-17T22:05:21.424Z,17.50
2018-06-17T22:07:54.912Z,17.50
2018-06-17T22:10:28.583Z,17.50
2018-06-17T22:13:00.793Z,17.50
2018-06-17T22:15:34.332Z,17.50
2018-06-17T22:18:02.617Z,17.50
2018-06-17T22:20:30.782Z,17.50
2018-06-17T22:22:58.978Z,17.40
2018-06-17T22:25:27.205Z,17.40
2018-06-17T22:27:55.428Z,17.40
2018-06-17T22:30:23.647Z,17.30
2018-06-17T22:32:51.816Z,17.30
2018-06-17T22:35:19.986Z,17.20
2018-06-17T22:37:48.135Z,17.20
2018-06-17T22:40:16.303Z,17.20
2018-06-17T22:42:44.502Z,17.10
2018-06-17T22:47:46.013Z,17.00
2018-06-17T22:50:14.422Z,16.90
2018-06-17T22:52:54.176Z,16.80
2018-06-17T22:55:22.376Z,16.70
2018-06-17T22:57:55.921Z,16.60
2018-06-17T23:00:29.553Z,16.60
2018-06-17T23:03:03.244Z,16.60
2018-06-17T23:05:36.836Z,16.60
2018-06-17T23:08:10.501Z,16.60
2018-06-17T23:10:38.701Z,16.50
2018-06-17T23:13:06.891Z,16.50
2018-06-17T23:15:35.050Z,16.40
2018-06-17T23:18:03.283Z,16.50
2018-06-17T23:20:31.478Z,16.50
2018-06-17T23:22:59.651Z,16.50
2018-06-17T23:25:27.816Z,16.60
2018-06-17T23:27:56.061Z,16.70
2018-06-17T23:30:24.305Z,16.70
2018-06-17T23:32:52.485Z,16.70
2018-06-17T23:35:20.661Z,16.70
2018-06-17T23:37:48.816Z,16.70
2018-06-17T23:40:17.016Z,16.60
2018-06-17T23:42:45.198Z,16.60
2018-06-17T23:45:13.383Z,16.60
2018-06-17T23:47:47.662Z,16.60
2018-06-17T23:50:21.279Z,16.60
2018-06-17T23:52:54.820Z,16.60
2018-06-17T23:56:31.885Z,16.60
2018-06-17T23:59:00.075Z,16.60
